Time;durP1;ratioP1;P1;durP2;ratioP2;P2;SDS_P1;SDS_P2;PMS_P1;PMS_P2;Temp;Humidity;BMP_temperature;BMP_pressure;BME280_temperature;BME280_humidity;BME280_pressure;Samples;Min_cycle;Max_cycle;Signal;HPM_P1;HPM_P2
2022/02/17 05:00:13;;;;;;;2.07;0.50;;;8.60;96.30;;;;;;6098149;23;21160;-84
2022/02/17 05:02:40;;;;;;;0.90;0.50;;;7.40;96.30;;;;;;5045538;28;21004;-74
2022/02/17 05:05:06;;;;;;;0.80;0.50;;;6.70;96.30;;;;;;5035307;28;20497;-75
2022/02/17 05:07:32;;;;;;;1.83;0.70;;;6.40;96.30;;;;;;5053721;28;20513;-75
2022/02/17 05:09:57;;;;;;;1.63;0.50;;;6.30;96.30;;;;;;5053851;28;20229;-76
2022/02/17 05:12:23;;;;;;;1.47;0.60;;;6.30;96.30;;;;;;5048141;28;20441;-74
2022/02/17 05:14:48;;;;;;;0.90;0.53;;;6.20;96.30;;;;;;5053270;28;20172;-74
2022/02/17 05:17:20;;;;;;;0.90;0.60;;;6.20;96.30;;;;;;5060629;28;20197;-77
2022/02/17 05:19:45;;;;;;;0.80;0.50;;;6.20;96.30;;;;;;5038198;28;20571;-76
2022/02/17 05:29:57;;;;;;;0.90;0.40;;;6.20;96.30;;;;;;5154435;23;20539;-73
2022/02/17 05:32:22;;;;;;;2.70;0.50;;;6.20;96.30;;;;;;5053783;28;20816;-74
2022/02/17 05:34:48;;;;;;;1.10;0.63;;;6.20;96.30;;;;;;5054820;28;20190;-76
2022/02/17 05:37:13;;;;;;;1.20;0.53;;;6.10;96.30;;;;;;5073157;28;20183;-76
2022/02/17 05:39:39;;;;;;;0.87;0.43;;;6.10;96.30;;;;;;5055169;28;20178;-76
2022/02/17 05:42:04;;;;;;;0.87;0.50;;;6.10;96.30;;;;;;5073047;28;20217;-79
2022/02/17 05:44:30;;;;;;;1.57;0.50;;;6.00;96.30;;;;;;5072487;28;20223;-76
2022/02/17 05:46:56;;;;;;;2.23;0.50;;;5.90;96.30;;;;;;5055932;28;20181;-78
2022/02/17 05:49:22;;;;;;;0.90;0.50;;;5.90;96.30;;;;;;5055889;28;20413;-77
2022/02/17 05:51:47;;;;;;;0.80;0.40;;;5.80;96.30;;;;;;5072999;28;20186;-76
2022/02/17 05:54:13;;;;;;;1.57;0.50;;;5.70;96.30;;;;;;5070030;28;20178;-76
2022/02/17 05:56:40;;;;;;;1.10;0.50;;;5.70;96.30;;;;;;5059075;28;20701;-76
2022/02/17 05:59:06;;;;;;;1.17;0.50;;;5.60;96.30;;;;;;5066495;28;20182;-76
2022/02/17 06:01:31;;;;;;;2.90;0.60;;;5.60;96.30;;;;;;5054629;28;20453;-75
2022/02/17 06:03:57;;;;;;;1.20;0.60;;;5.60;96.30;;;;;;5054711;28;20170;-76
2022/02/17 06:06:23;;;;;;;2.23;0.63;;;5.60;96.30;;;;;;5071955;28;20159;-77
2022/02/17 06:08:49;;;;;;;2.17;0.90;;;5.70;96.30;;;;;;5054550;28;20409;-78
2022/02/17 06:11:14;;;;;;;8.23;1.37;;;5.80;96.30;;;;;;5061087;28;20195;-79
2022/02/17 06:13:39;;;;;;;1.63;0.90;;;5.80;96.30;;;;;;5034840;28;20175;-78
2022/02/17 06:16:05;;;;;;;1.47;0.70;;;5.80;96.30;;;;;;5063094;28;20268;-78
2022/02/17 06:18:31;;;;;;;3.50;1.27;;;5.80;96.30;;;;;;5054610;28;20622;-78
2022/02/17 06:20:56;;;;;;;3.37;0.97;;;5.90;96.30;;;;;;5072282;28;20243;-77
2022/02/17 06:23:22;;;;;;;5.40;0.90;;;5.90;96.30;;;;;;5055240;28;20185;-79
2022/02/17 06:25:47;;;;;;;3.87;1.73;;;5.90;96.30;;;;;;5074664;28;20664;-75
2022/02/17 06:28:13;;;;;;;2.13;1.07;;;5.90;96.30;;;;;;5054465;28;20191;-73
2022/02/17 06:30:41;;;;;;;2.80;0.93;;;5.80;96.30;;;;;;5054367;28;20260;-73
2022/02/17 06:33:07;;;;;;;6.37;0.83;;;5.60;96.30;;;;;;5071700;28;20178;-76
2022/02/17 06:35:36;;;;;;;1.63;0.77;;;5.50;96.30;;;;;;5050221;28;20508;-76
2022/02/17 06:38:03;;;;;;;1.30;0.70;;;5.40;96.30;;;;;;5052116;28;20430;-76
2022/02/17 06:40:29;;;;;;;1.47;0.70;;;5.40;96.30;;;;;;5046701;28;20477;-77
2022/02/17 06:42:55;;;;;;;2.27;0.70;;;5.30;96.30;;;;;;5050942;28;20445;-76
2022/02/17 06:45:21;;;;;;;1.97;0.83;;;5.40;96.30;;;;;;5051434;28;20885;-77
2022/02/17 06:47:47;;;;;;;1.60;0.87;;;5.40;96.30;;;;;;5051718;28;20176;-78
2022/02/17 06:50:15;;;;;;;6.70;1.00;;;5.40;96.30;;;;;;5045321;28;20425;-77
2022/02/17 06:52:41;;;;;;;3.10;1.00;;;5.40;96.30;;;;;;5052261;28;20170;-78
2022/02/17 06:55:07;;;;;;;1.53;0.80;;;5.50;96.30;;;;;;5062086;28;20915;-79
2022/02/17 06:57:33;;;;;;;2.27;1.13;;;5.60;96.30;;;;;;5053966;28;20417;-78
2022/02/17 07:00:02;;;;;;;5.40;1.40;;;5.60;96.30;;;;;;5053950;28;20455;-78
2022/02/17 07:02:31;;;;;;;4.97;0.93;;;5.60;96.30;;;;;;5070345;28;20282;-79
2022/02/17 07:04:57;;;;;;;1.73;0.77;;;5.60;96.30;;;;;;5032882;28;20417;-79
2022/02/17 07:07:22;;;;;;;6.07;1.30;;;5.70;96.30;;;;;;5034805;28;20406;-78
2022/02/17 07:09:48;;;;;;;3.17;0.90;;;5.70;96.30;;;;;;5034263;28;20418;-78
2022/02/17 07:12:17;;;;;;;2.70;0.90;;;5.70;96.30;;;;;;5050836;28;20251;-79
2022/02/17 07:14:42;;;;;;;3.13;0.97;;;5.80;96.30;;;;;;5051659;28;20172;-78
2022/02/17 07:17:09;;;;;;;9.80;1.37;;;5.90;96.30;;;;;;5052282;28;20977;-80
2022/02/17 07:19:34;;;;;;;4.37;1.10;;;5.90;96.30;;;;;;5052203;28;20262;-79
2022/02/17 07:22:00;;;;;;;5.43;1.17;;;5.90;96.30;;;;;;5051934;28;20552;-77
2022/02/17 07:24:26;;;;;;;5.30;1.17;;;6.00;96.30;;;;;;5051325;28;20172;-80
2022/02/17 07:26:52;;;;;;;3.90;2.10;;;5.90;96.30;;;;;;5052812;28;20434;-78
2022/02/17 07:29:18;;;;;;;5.70;1.30;;;5.90;96.30;;;;;;5056618;28;20253;-78
2022/02/17 07:31:44;;;;;;;4.23;1.37;;;5.90;96.30;;;;;;5050842;28;20278;-78
2022/02/17 07:34:09;;;;;;;2.93;1.00;;;6.00;96.30;;;;;;5050583;28;20445;-78
2022/02/17 07:36:36;;;;;;;4.20;1.20;;;6.00;96.30;;;;;;5063780;28;20175;-77
2022/02/17 07:39:02;;;;;;;2.80;1.10;;;6.00;96.30;;;;;;5071841;28;20151;-77
2022/02/17 07:41:30;;;;;;;5.07;1.00;;;5.90;96.30;;;;;;5053458;28;20453;-76
2022/02/17 07:43:56;;;;;;;2.10;1.10;;;6.00;96.30;;;;;;5045345;28;20454;-77
2022/02/17 07:46:22;;;;;;;6.70;1.97;;;6.00;96.30;;;;;;5069755;28;20413;-75
2022/02/17 07:48:50;;;;;;;4.40;1.43;;;6.00;96.30;;;;;;5055146;28;20179;-73
2022/02/17 07:51:16;;;;;;;2.43;0.67;;;5.90;96.30;;;;;;5054499;28;20655;-73
2022/02/17 07:53:42;;;;;;;1.10;0.73;;;4.10;96.30;;;;;;5055368;28;20754;-72
2022/02/17 07:56:08;;;;;;;1.47;0.60;;;3.60;96.30;;;;;;5054243;28;20489;-73
2022/02/17 07:58:34;;;;;;;2.47;0.60;;;3.50;96.30;;;;;;5060714;28;20409;-76
2022/02/17 08:01:01;;;;;;;1.43;0.70;;;3.60;96.30;;;;;;5055054;28;20206;-76
2022/02/17 08:03:27;;;;;;;2.60;0.70;;;3.70;96.30;;;;;;5074824;28;20178;-76
2022/02/17 08:05:52;;;;;;;1.57;0.70;;;3.70;96.30;;;;;;5074513;28;20441;-76
2022/02/17 08:08:18;;;;;;;1.40;0.63;;;3.80;96.30;;;;;;5074147;28;20445;-76
2022/02/17 08:10:44;;;;;;;4.13;1.33;;;3.90;96.30;;;;;;5074780;28;20187;-78
2022/02/17 08:13:11;;;;;;;4.00;1.00;;;4.10;96.30;;;;;;5074800;28;20926;-78
2022/02/17 08:15:37;;;;;;;2.30;0.87;;;4.20;96.30;;;;;;5074570;28;20174;-78
2022/02/17 08:18:02;;;;;;;6.63;1.40;;;4.30;96.30;;;;;;5056788;28;20923;-79
2022/02/17 08:20:28;;;;;;;4.83;1.47;;;4.40;96.30;;;;;;5074539;28;20628;-79
2022/02/17 08:22:56;;;;;;;4.10;0.93;;;4.50;96.30;;;;;;5057772;28;20175;-79
2022/02/17 08:25:23;;;;;;;2.53;0.90;;;4.50;96.30;;;;;;5057972;28;20523;-79
2022/02/17 08:27:49;;;;;;;2.47;1.10;;;4.60;96.30;;;;;;5057362;28;20417;-79
2022/02/17 08:30:15;;;;;;;5.27;0.73;;;4.80;96.30;;;;;;5057191;28;20417;-79
2022/02/17 08:32:41;;;;;;;5.80;1.00;;;5.00;96.30;;;;;;5062939;28;20452;-79
2022/02/17 08:35:11;;;;;;;7.80;1.30;;;5.00;96.30;;;;;;5056460;28;20904;-80
2022/02/17 08:37:38;;;;;;;2.30;0.80;;;5.00;96.30;;;;;;5036635;28;20183;-78
2022/02/17 08:40:05;;;;;;;5.73;1.00;;;5.10;96.30;;;;;;5036500;28;20784;-79
2022/02/17 08:42:31;;;;;;;2.77;0.97;;;5.20;96.30;;;;;;5054176;28;20426;-78
2022/02/17 08:44:56;;;;;;;3.23;0.90;;;5.40;96.30;;;;;;5054017;28;20429;-79
2022/02/17 08:47:22;;;;;;;5.17;0.70;;;5.50;96.30;;;;;;5053974;28;20179;-78
2022/02/17 08:49:48;;;;;;;5.47;1.30;;;5.60;96.30;;;;;;5054161;28;20171;-78
2022/02/17 08:52:14;;;;;;;4.70;1.10;;;5.60;96.30;;;;;;5054040;28;20302;-78
2022/02/17 08:54:39;;;;;;;3.77;1.20;;;5.50;96.30;;;;;;5053137;28;20428;-78
2022/02/17 08:57:05;;;;;;;2.47;0.97;;;5.50;96.30;;;;;;5036082;28;20410;-78
2022/02/17 08:59:31;;;;;;;3.50;1.30;;;5.60;96.30;;;;;;5053917;28;20188;-77
2022/02/17 09:01:57;;;;;;;7.70;1.30;;;5.60;96.30;;;;;;5035844;28;20587;-77
2022/02/17 09:04:23;;;;;;;3.53;0.97;;;5.60;96.30;;;;;;5053607;28;20168;-77
2022/02/17 09:06:49;;;;;;;4.50;1.23;;;5.70;96.30;;;;;;5035943;28;20182;-77
2022/02/17 09:09:18;;;;;;;3.93;1.40;;;5.70;96.30;;;;;;5035915;28;20774;-77
2022/02/17 09:11:43;;;;;;;3.03;1.13;;;5.70;96.30;;;;;;5053791;28;20478;-77
2022/02/17 09:14:09;;;;;;;3.33;1.10;;;5.80;96.30;;;;;;5053717;28;20442;-77
2022/02/17 09:16:35;;;;;;;5.53;1.13;;;5.80;96.30;;;;;;5053567;28;20175;-79
2022/02/17 09:19:03;;;;;;;4.60;1.60;;;5.80;96.30;;;;;;5053527;28;20180;-78
2022/02/17 09:21:29;;;;;;;2.40;1.37;;;5.80;96.30;;;;;;5053455;28;20468;-78
2022/02/17 09:23:54;;;;;;;2.30;0.80;;;5.60;96.30;;;;;;5053444;28;20414;-77
2022/02/17 09:26:20;;;;;;;4.23;0.90;;;5.70;96.30;;;;;;5035316;28;20258;-77
2022/02/17 09:28:48;;;;;;;8.77;1.40;;;5.60;96.30;;;;;;5053224;28;20187;-77
2022/02/17 09:31:23;;;;;;;3.30;0.93;;;5.50;96.30;;;;;;5053423;28;20257;-76
2022/02/17 09:33:53;;;;;;;2.07;0.90;;;5.60;96.30;;;;;;5053760;28;20404;-77
2022/02/17 09:36:20;;;;;;;5.00;1.00;;;5.50;96.30;;;;;;5069338;28;20410;-76
2022/02/17 09:38:46;;;;;;;5.77;0.83;;;5.40;96.30;;;;;;5055385;28;20490;-77
2022/02/17 09:41:16;;;;;;;4.30;0.70;;;5.40;96.30;;;;;;5073150;28;20851;-77
2022/02/17 09:43:43;;;;;;;2.80;0.80;;;5.50;96.30;;;;;;5073160;28;20167;-76
2022/02/17 09:46:20;;;;;;;1.20;0.70;;;5.40;96.30;;;;;;5054673;28;20444;-77
2022/02/17 09:48:50;;;;;;;6.13;1.00;;;5.40;96.30;;;;;;5055026;28;20490;-77
2022/02/17 09:51:16;;;;;;;2.57;1.00;;;5.50;96.30;;;;;;5073301;28;20433;-76
2022/02/17 09:53:41;;;;;;;3.50;0.80;;;5.60;96.30;;;;;;5071264;28;20433;-77
2022/02/17 09:56:07;;;;;;;4.57;1.40;;;5.60;96.30;;;;;;5062542;28;20171;-77
2022/02/17 09:58:33;;;;;;;10.30;1.43;;;5.80;96.30;;;;;;5056050;28;20262;-76
2022/02/17 10:00:58;;;;;;;3.67;1.03;;;5.80;96.30;;;;;;5072424;28;20608;-77
2022/02/17 10:03:32;;;;;;;7.33;1.10;;;5.80;96.30;;;;;;5054476;28;20179;-77
2022/02/17 10:06:06;;;;;;;6.73;1.10;;;5.70;96.30;;;;;;5053951;28;20191;-76
2022/02/17 10:08:32;;;;;;;6.80;1.97;;;5.70;96.30;;;;;;5067782;28;20417;-75
2022/02/17 10:10:58;;;;;;;4.40;1.33;;;5.70;96.30;;;;;;5072844;28;20436;-75
2022/02/17 10:13:23;;;;;;;7.70;1.90;;;5.80;96.30;;;;;;5072668;28;20480;-75
2022/02/17 10:15:54;;;;;;;3.07;1.23;;;5.80;96.30;;;;;;5054433;28;20240;-75
2022/02/17 10:18:22;;;;;;;8.83;1.43;;;5.80;96.30;;;;;;5055096;28;20239;-76
2022/02/17 10:20:58;;;;;;;2.90;0.97;;;5.90;96.30;;;;;;5072479;28;20456;-75
2022/02/17 10:23:26;;;;;;;2.70;0.83;;;6.20;96.30;;;;;;5072704;28;20812;-74
2022/02/17 10:26:04;;;;;;;2.20;0.70;;;6.40;96.30;;;;;;5072328;28;20896;-75
2022/02/17 10:28:43;;;;;;;2.20;0.67;;;6.10;96.30;;;;;;5072414;28;20765;-74
2022/02/17 10:31:26;;;;;;;2.43;0.90;;;5.60;96.30;;;;;;5054416;28;21017;-75
2022/02/17 10:33:54;;;;;;;1.30;0.60;;;5.30;96.30;;;;;;5054418;28;20421;-74
2022/02/17 10:36:34;;;;;;;1.43;0.60;;;5.10;96.30;;;;;;5072096;28;20516;-74
2022/02/17 10:39:23;;;;;;;2.03;0.60;;;5.00;96.30;;;;;;5072280;28;20413;-75
2022/02/17 10:41:51;;;;;;;0.90;0.50;;;4.90;96.30;;;;;;5055313;28;20987;-75
2022/02/17 10:44:22;;;;;;;2.00;0.73;;;5.00;96.30;;;;;;5072258;28;20500;-76
2022/02/17 10:46:48;;;;;;;1.40;0.60;;;5.00;96.30;;;;;;5072153;28;20468;-74
2022/02/17 10:49:16;;;;;;;1.50;0.63;;;5.10;96.30;;;;;;5072320;28;20437;-74
2022/02/17 10:51:42;;;;;;;2.53;0.60;;;5.10;96.30;;;;;;5072189;28;20198;-74
2022/02/17 10:54:08;;;;;;;1.67;0.60;;;;;;;;;;5072283;28;20873;-75
2022/02/17 10:56:35;;;;;;;1.87;0.60;;;5.30;96.30;;;;;;5072152;28;20847;-74
2022/02/17 11:00:00;;;;;;;1.20;0.70;;;5.40;96.30;;;;;;5072166;28;20827;-74
2022/02/17 11:01:53;;;;;;;4.17;1.47;;;5.70;96.30;;;;;;5071848;28;20884;-75
2022/02/17 11:04:18;;;;;;;3.07;0.87;;;6.40;96.30;;;;;;5053968;28;20421;-75
2022/02/17 11:06:45;;;;;;;2.37;0.80;;;6.50;96.30;;;;;;5072026;28;20416;-75
2022/02/17 11:09:12;;;;;;;3.20;1.00;;;6.40;96.30;;;;;;5072292;28;20635;-74
2022/02/17 11:11:37;;;;;;;2.90;1.00;;;6.30;96.30;;;;;;5050272;28;20438;-76
2022/02/17 11:14:03;;;;;;;3.53;0.80;;;6.20;96.30;;;;;;5034232;28;20922;-74
2022/02/17 11:16:29;;;;;;;5.77;1.27;;;6.20;96.30;;;;;;5035018;28;20645;-76
2022/02/17 11:18:55;;;;;;;3.83;0.90;;;6.20;96.30;;;;;;5037193;28;20261;-76
2022/02/17 11:21:21;;;;;;;2.63;1.00;;;6.20;96.30;;;;;;5038881;28;20847;-76
2022/02/17 11:23:46;;;;;;;5.40;0.93;;;6.10;96.30;;;;;;5038399;28;20263;-77
2022/02/17 11:26:32;;;;;;;4.93;1.20;;;6.10;96.30;;;;;;5056374;28;20222;-76
2022/02/17 11:29:32;;;;;;;5.10;0.90;;;6.20;96.30;;;;;;5060799;28;20190;-76
2022/02/17 11:45:56;;;;;;;2.60;0.73;;;7.60;96.30;;;;;;4984123;28;20475;-77
2022/02/17 11:52:42;;;;;;;2.47;1.10;;;6.90;96.30;;;;;;4996628;28;20512;-78
2022/02/17 13:45:39;;;;;;;2.87;1.00;;;6.60;96.30;;;;;;3660256;23;21409;-77
2022/02/17 13:48:06;;;;;;;4.30;1.20;;;6.70;96.30;;;;;;5049953;28;20916;-76
2022/02/17 13:50:32;;;;;;;4.17;1.23;;;6.70;96.30;;;;;;5053011;28;20442;-76
2022/02/17 13:53:09;;;;;;;5.17;1.00;;;6.70;96.30;;;;;;5059560;28;20540;-76
2022/02/17 13:55:38;;;;;;;7.20;0.93;;;6.80;96.30;;;;;;5052778;28;20429;-76
2022/02/17 13:58:05;;;;;;;6.40;1.60;;;6.70;96.30;;;;;;5052453;28;20414;-76
2022/02/17 14:00:37;;;;;;;4.73;1.23;;;6.70;96.30;;;;;;5048588;28;20839;-76
2022/02/17 14:03:26;;;;;;;8.53;1.10;;;6.60;96.30;;;;;;5051436;28;20500;-76
2022/02/17 14:05:57;;;;;;;5.60;1.27;;;6.40;96.30;;;;;;5052615;28;20398;-76
2022/02/17 14:08:26;;;;;;;4.77;1.00;;;6.50;96.30;;;;;;5052337;28;20410;-76
2022/02/17 14:10:52;;;;;;;3.43;1.47;;;6.50;96.30;;;;;;5052553;28;20479;-76
2022/02/17 14:13:18;;;;;;;3.00;1.23;;;6.60;96.30;;;;;;5053489;28;20417;-77
2022/02/17 14:15:44;;;;;;;5.60;1.20;;;6.50;96.30;;;;;;5053406;28;20427;-76
2022/02/17 14:18:10;;;;;;;5.13;1.20;;;6.50;96.30;;;;;;5053273;28;20496;-76
2022/02/17 14:20:36;;;;;;;4.20;1.07;;;6.50;96.30;;;;;;5053165;28;20515;-76
2022/02/17 14:23:01;;;;;;;14.63;1.20;;;6.40;96.30;;;;;;5052597;28;20175;-77
2022/02/17 14:25:29;;;;;;;7.37;1.00;;;6.30;96.30;;;;;;5052218;28;20210;-77
2022/02/17 14:27:55;;;;;;;3.80;1.40;;;6.30;96.30;;;;;;5050587;28;20195;-77
2022/02/17 14:30:20;;;;;;;3.60;0.90;;;6.20;96.30;;;;;;5051013;28;20505;-77
2022/02/17 14:32:46;;;;;;;4.30;1.30;;;6.20;96.30;;;;;;5052346;28;20989;-77
2022/02/17 14:35:11;;;;;;;5.73;1.40;;;6.20;96.30;;;;;;5050664;28;20229;-77
2022/02/17 14:37:43;;;;;;;6.77;1.13;;;6.30;96.30;;;;;;5052444;28;20677;-77
2022/02/17 14:40:11;;;;;;;4.83;1.50;;;6.40;96.30;;;;;;5052359;28;20167;-78
2022/02/17 14:42:37;;;;;;;1.93;0.90;;;6.80;96.30;;;;;;5051903;28;20473;-78
2022/02/17 14:45:03;;;;;;;11.20;1.63;;;7.00;96.30;;;;;;5052048;28;20410;-76
2022/02/17 14:47:28;;;;;;;2.50;0.80;;;6.90;96.30;;;;;;5051282;28;20456;-76
2022/02/17 14:49:54;;;;;;;6.20;1.60;;;6.80;96.30;;;;;;5051169;28;20485;-76
2022/02/17 14:52:20;;;;;;;4.47;1.30;;;6.80;96.30;;;;;;5050799;28;20195;-75
2022/02/17 14:54:46;;;;;;;2.50;0.97;;;6.80;96.30;;;;;;5049790;28;20175;-76
2022/02/17 14:57:12;;;;;;;5.83;1.20;;;7.00;96.30;;;;;;5055377;28;20416;-76
2022/02/17 14:59:38;;;;;;;4.97;1.13;;;7.00;96.30;;;;;;5051504;28;20497;-75
2022/02/17 15:02:03;;;;;;;5.03;0.87;;;6.90;96.30;;;;;;5049480;28;20203;-76
2022/02/17 15:04:29;;;;;;;3.20;1.17;;;7.00;96.30;;;;;;5033435;28;20266;-76
2022/02/17 15:06:54;;;;;;;5.53;1.17;;;6.90;96.30;;;;;;5051059;28;20647;-76
2022/02/17 15:09:20;;;;;;;3.00;1.03;;;6.90;96.30;;;;;;5051124;28;20171;-76
2022/02/17 15:11:45;;;;;;;5.37;1.27;;;6.90;96.30;;;;;;5050857;28;20244;-75
2022/02/17 15:14:11;;;;;;;6.93;0.97;;;6.70;96.30;;;;;;5050910;28;20183;-76
2022/02/17 15:16:36;;;;;;;5.83;0.90;;;6.60;96.30;;;;;;5050849;28;20171;-76
2022/02/17 15:19:02;;;;;;;5.07;1.07;;;6.50;96.30;;;;;;5051127;28;20769;-78
2022/02/17 15:21:27;;;;;;;3.63;0.90;;;6.40;96.30;;;;;;5050728;28;20207;-78
2022/02/17 15:23:53;;;;;;;5.87;1.00;;;6.30;96.30;;;;;;5050896;28;20179;-77
2022/02/17 15:26:19;;;;;;;2.80;0.80;;;6.30;96.30;;;;;;5032928;28;20168;-78
2022/02/17 15:28:44;;;;;;;3.80;1.13;;;6.20;96.30;;;;;;5051009;28;20628;-78
2022/02/17 15:31:10;;;;;;;5.90;1.43;;;6.10;96.30;;;;;;5033162;28;20227;-76
2022/02/17 15:33:37;;;;;;;2.40;1.20;;;6.10;96.30;;;;;;5051541;28;20187;-76
2022/02/17 15:36:06;;;;;;;4.53;0.90;;;6.00;96.30;;;;;;5025338;28;20191;-73
2022/02/17 15:38:32;;;;;;;3.90;1.13;;;6.00;96.30;;;;;;5031615;28;20418;-76
2022/02/17 15:40:58;;;;;;;3.63;0.80;;;5.90;96.30;;;;;;5046315;28;20462;-77
2022/02/17 15:43:24;;;;;;;2.93;1.20;;;5.80;96.30;;;;;;5049321;28;20179;-75
2022/02/17 15:45:50;;;;;;;2.00;0.70;;;5.80;96.30;;;;;;5015328;28;987339;-75
2022/02/17 15:48:16;;;;;;;8.03;1.77;;;5.70;96.30;;;;;;5051323;28;20195;-75
2022/02/17 15:50:41;;;;;;;1.93;0.90;;;5.70;96.30;;;;;;5051391;28;20208;-75
2022/02/17 15:53:07;;;;;;;3.13;0.87;;;5.60;96.30;;;;;;5051784;28;20237;-75
2022/02/17 15:55:32;;;;;;;2.93;1.00;;;5.60;96.30;;;;;;5048816;28;20184;-75
2022/02/17 15:57:58;;;;;;;3.70;1.00;;;5.50;96.30;;;;;;5051890;28;20647;-75
2022/02/17 16:00:24;;;;;;;2.80;0.90;;;5.50;96.30;;;;;;5039629;28;20251;-75
2022/02/17 16:02:50;;;;;;;2.03;0.97;;;5.40;96.30;;;;;;5051892;28;20414;-75
2022/02/17 16:05:16;;;;;;;4.07;1.00;;;5.50;96.30;;;;;;5052790;28;20409;-75
2022/02/17 16:07:42;;;;;;;4.37;1.00;;;5.40;96.30;;;;;;5055188;28;20711;-75
2022/02/17 16:10:10;;;;;;;2.07;1.07;;;5.40;96.30;;;;;;5037123;28;20493;-75
2022/02/17 16:12:36;;;;;;;2.57;0.90;;;5.30;96.30;;;;;;5055116;28;20230;-75
2022/02/17 16:15:02;;;;;;;4.00;0.90;;;5.30;96.30;;;;;;5054672;28;21013;-76
2022/02/17 16:17:27;;;;;;;5.70;1.13;;;5.20;96.30;;;;;;5054719;28;20446;-75
2022/02/17 16:19:53;;;;;;;5.23;1.37;;;5.00;96.30;;;;;;5054768;28;20171;-74
2022/02/17 16:22:19;;;;;;;11.80;1.03;;;5.00;96.30;;;;;;5036464;28;20213;-75
2022/02/17 16:24:46;;;;;;;2.50;0.90;;;5.00;96.30;;;;;;5054453;28;20175;-76
2022/02/17 16:27:12;;;;;;;6.27;2.60;;;4.90;96.30;;;;;;5054508;28;20457;-76
2022/02/17 16:29:37;;;;;;;6.20;1.47;;;4.90;96.30;;;;;;5036506;28;20442;-77
2022/02/17 16:32:03;;;;;;;5.83;1.20;;;4.80;96.30;;;;;;5036242;28;20196;-77
2022/02/17 16:34:29;;;;;;;2.40;1.00;;;4.80;96.30;;;;;;5053954;28;20222;-77
2022/02/17 16:36:55;;;;;;;2.67;1.03;;;4.80;96.30;;;;;;5054235;28;20414;-75
2022/02/17 16:39:20;;;;;;;7.30;1.23;;;4.70;96.30;;;;;;5054065;28;20183;-75
2022/02/17 16:41:48;;;;;;;6.47;1.10;;;4.70;96.30;;;;;;5054149;28;20550;-76
2022/02/17 16:44:15;;;;;;;3.67;1.10;;;4.70;96.30;;;;;;5053497;28;20168;-75
2022/02/17 16:46:41;;;;;;;3.93;1.03;;;4.60;96.30;;;;;;5035597;28;20517;-74
2022/02/17 16:49:07;;;;;;;4.93;1.40;;;4.70;96.30;;;;;;5052446;28;20890;-75
2022/02/17 16:51:34;;;;;;;3.20;1.10;;;4.70;96.30;;;;;;5054037;28;20953;-75
2022/02/17 16:54:00;;;;;;;3.53;1.00;;;4.60;96.30;;;;;;5053941;28;20230;-76
2022/02/17 16:56:26;;;;;;;5.27;1.67;;;4.60;96.30;;;;;;5035610;28;20422;-76
2022/02/17 16:58:51;;;;;;;6.70;1.20;;;4.60;96.30;;;;;;5053932;28;20225;-75
2022/02/17 17:01:17;;;;;;;3.37;0.90;;;4.50;96.30;;;;;;5035709;28;20219;-75
2022/02/17 17:03:43;;;;;;;5.97;1.20;;;4.30;96.30;;;;;;5053708;28;20246;-77
2022/02/17 17:06:10;;;;;;;4.43;1.20;;;4.30;96.30;;;;;;5052382;28;20413;-76
2022/02/17 17:08:36;;;;;;;8.30;1.83;;;4.30;96.30;;;;;;5052260;28;20168;-76
2022/02/17 17:11:04;;;;;;;4.90;1.23;;;4.30;96.30;;;;;;5053604;28;20426;-75
2022/02/17 17:13:33;;;;;;;3.57;1.00;;;4.20;96.30;;;;;;5035734;28;20465;-76
2022/02/17 17:15:59;;;;;;;2.17;1.00;;;4.30;96.30;;;;;;5053419;28;20410;-74
2022/02/17 17:18:24;;;;;;;3.10;0.80;;;4.30;96.30;;;;;;5054617;28;20929;-75
2022/02/17 17:20:51;;;;;;;6.00;1.40;;;4.50;96.30;;;;;;5054322;28;20457;-73
2022/02/17 17:23:17;;;;;;;2.30;0.93;;;4.40;96.30;;;;;;5038328;28;20171;-73
2022/02/17 17:25:42;;;;;;;8.03;1.60;;;4.40;96.30;;;;;;5052437;28;20414;-73
2022/02/17 17:28:08;;;;;;;1.90;1.00;;;4.40;96.30;;;;;;5051980;28;20406;-75
2022/02/17 17:30:33;;;;;;;4.20;1.50;;;4.30;96.30;;;;;;5053241;28;20211;-75
2022/02/17 17:32:59;;;;;;;18.73;1.27;;;4.30;96.30;;;;;;5053169;28;20172;-75
2022/02/17 17:35:24;;;;;;;8.13;1.57;;;4.30;96.30;;;;;;5052902;28;20172;-76
2022/02/17 17:37:50;;;;;;;2.73;1.07;;;4.30;96.30;;;;;;5035313;28;20179;-76
2022/02/17 17:40:15;;;;;;;3.33;1.03;;;4.30;96.30;;;;;;5052884;28;20175;-75
2022/02/17 17:42:41;;;;;;;7.10;1.60;;;4.30;96.30;;;;;;5052854;28;20285;-75
2022/02/17 17:45:26;;;;;;;3.07;0.90;;;4.20;96.30;;;;;;5051106;28;20175;-75
2022/02/17 17:48:01;;;;;;;3.40;0.97;;;4.30;96.30;;;;;;5031914;28;20218;-75
2022/02/17 17:50:29;;;;;;;3.90;1.67;;;4.40;96.30;;;;;;5049674;28;21002;-75
2022/02/17 17:52:54;;;;;;;5.20;1.30;;;4.30;96.30;;;;;;5051485;28;20676;-76
2022/02/17 17:55:20;;;;;;;4.40;1.23;;;4.20;96.30;;;;;;5051231;28;21032;-75
2022/02/17 17:57:45;;;;;;;1.73;0.90;;;4.40;96.30;;;;;;5051562;28;20167;-76
2022/02/17 18:00:11;;;;;;;5.57;0.93;;;4.30;96.30;;;;;;5051403;28;20172;-75
2022/02/17 18:02:37;;;;;;;2.10;1.03;;;4.30;96.30;;;;;;5032383;28;20682;-75
2022/02/17 18:05:03;;;;;;;3.77;1.03;;;4.30;96.30;;;;;;5050578;28;20175;-76
2022/02/17 18:07:29;;;;;;;2.50;1.27;;;4.20;96.30;;;;;;5050961;28;20406;-75
2022/02/17 18:09:54;;;;;;;9.93;1.00;;;4.30;96.30;;;;;;5050422;28;20233;-76
2022/02/17 18:12:20;;;;;;;3.57;0.90;;;4.20;96.30;;;;;;5029992;28;20231;-75
2022/02/17 18:14:45;;;;;;;6.90;1.13;;;4.30;96.30;;;;;;5045392;28;20271;-76
2022/02/17 18:17:11;;;;;;;4.80;1.67;;;4.30;96.30;;;;;;5044736;28;20198;-77
2022/02/17 18:19:36;;;;;;;4.00;1.50;;;4.40;96.30;;;;;;5032598;28;20206;-77
2022/02/17 18:22:04;;;;;;;2.77;1.37;;;4.50;96.30;;;;;;5049823;28;20297;-77
2022/02/17 18:24:33;;;;;;;3.23;0.83;;;4.40;96.30;;;;;;5033122;28;20179;-77
2022/02/17 18:27:00;;;;;;;5.57;1.20;;;4.40;96.30;;;;;;5034016;28;20422;-77
2022/02/17 18:29:25;;;;;;;2.13;0.97;;;4.20;96.30;;;;;;5033701;28;20495;-77
2022/02/17 18:31:51;;;;;;;5.07;1.47;;;4.20;96.30;;;;;;5033578;28;20941;-76
2022/02/17 18:34:16;;;;;;;5.63;1.20;;;4.20;96.30;;;;;;5033637;28;20187;-77
2022/02/17 18:36:42;;;;;;;3.30;1.10;;;4.20;96.30;;;;;;5033890;28;20172;-78
2022/02/17 18:39:07;;;;;;;6.00;1.40;;;4.30;96.30;;;;;;5051996;28;20180;-77
2022/02/17 18:41:37;;;;;;;7.30;1.37;;;4.20;96.30;;;;;;5033925;28;20211;-77
2022/02/17 18:44:06;;;;;;;7.90;1.47;;;4.20;96.30;;;;;;5033861;28;20175;-78
2022/02/17 18:46:33;;;;;;;4.63;1.27;;;4.30;96.30;;;;;;5051207;28;20430;-78
2022/02/17 18:48:59;;;;;;;4.13;1.00;;;4.30;96.30;;;;;;5034105;28;20429;-77
2022/02/17 18:51:24;;;;;;;6.13;1.40;;;4.40;96.30;;;;;;5051647;28;20438;-78
2022/02/17 18:53:50;;;;;;;10.87;1.50;;;4.30;96.30;;;;;;5033896;28;20198;-77
2022/02/17 18:56:15;;;;;;;3.43;1.17;;;4.20;96.30;;;;;;5033530;28;20210;-76
2022/02/17 18:58:41;;;;;;;6.90;1.60;;;4.20;96.30;;;;;;5050108;28;20186;-77
2022/02/17 19:01:09;;;;;;;6.53;1.17;;;4.20;96.30;;;;;;5051700;28;20234;-77
2022/02/17 19:03:34;;;;;;;8.00;1.57;;;4.10;96.30;;;;;;5033892;28;20831;-77
2022/02/17 19:06:03;;;;;;;7.37;1.27;;;4.00;96.30;;;;;;5050678;28;20463;-77
2022/02/17 19:08:29;;;;;;;2.10;1.20;;;4.10;96.30;;;;;;5033489;28;20175;-77
2022/02/17 19:10:55;;;;;;;4.17;1.20;;;4.10;96.30;;;;;;5051028;28;20828;-77
2022/02/17 19:13:24;;;;;;;4.70;1.23;;;4.20;96.30;;;;;;5051652;28;20199;-77
2022/02/17 19:15:49;;;;;;;4.53;2.13;;;4.20;96.30;;;;;;5033111;28;20472;-77
2022/02/17 19:18:16;;;;;;;5.20;1.20;;;4.30;96.30;;;;;;5033367;28;20425;-77
2022/02/17 19:20:41;;;;;;;6.33;1.33;;;4.30;96.30;;;;;;5046617;28;20253;-77
2022/02/17 19:23:07;;;;;;;7.40;1.50;;;4.20;96.30;;;;;;5031076;28;20836;-78
2022/02/17 19:25:32;;;;;;;3.73;0.93;;;4.20;96.30;;;;;;5033014;28;20697;-78
2022/02/17 19:27:58;;;;;;;5.40;1.50;;;4.20;96.30;;;;;;5051297;28;20678;-78
2022/02/17 19:30:26;;;;;;;4.43;1.17;;;4.30;96.30;;;;;;5051349;28;20171;-78
2022/02/17 19:32:53;;;;;;;3.70;1.07;;;4.30;96.30;;;;;;5052515;28;20183;-80
2022/02/17 19:35:19;;;;;;;3.63;1.27;;;4.20;96.30;;;;;;5051445;28;20513;-79
2022/02/17 19:37:44;;;;;;;3.57;1.43;;;4.20;96.30;;;;;;5033578;28;20906;-79
2022/02/17 19:40:11;;;;;;;4.07;1.17;;;4.20;96.30;;;;;;5036172;28;20456;-79
2022/02/17 19:42:38;;;;;;;5.90;0.80;;;4.30;96.30;;;;;;5055557;28;20207;-79
2022/02/17 19:45:06;;;;;;;8.03;2.00;;;4.30;96.30;;;;;;5037225;28;20409;-79
2022/02/17 19:47:31;;;;;;;5.93;1.83;;;4.30;96.30;;;;;;5037439;28;20801;-79
2022/02/17 19:49:58;;;;;;;7.13;1.40;;;4.20;96.30;;;;;;5037370;28;20410;-79
2022/02/17 19:52:25;;;;;;;6.30;1.20;;;4.20;96.30;;;;;;5037641;28;20568;-78
2022/02/17 19:54:51;;;;;;;7.63;1.33;;;4.20;96.30;;;;;;5036921;28;20779;-79
2022/02/17 19:57:16;;;;;;;14.73;2.43;;;4.20;96.30;;;;;;5037421;28;20512;-79
2022/02/17 19:59:41;;;;;;;4.00;1.13;;;4.20;96.30;;;;;;5036705;28;20168;-79
2022/02/17 20:02:07;;;;;;;3.10;1.80;;;4.20;96.30;;;;;;5054676;28;20667;-79
2022/02/17 20:04:33;;;;;;;7.20;1.60;;;4.30;96.30;;;;;;5036463;28;20203;-79
2022/02/17 20:06:58;;;;;;;9.83;1.30;;;4.20;96.30;;;;;;5054952;28;20222;-79
2022/02/17 20:09:24;;;;;;;4.27;1.00;;;4.20;96.30;;;;;;5054694;28;20199;-79
2022/02/17 20:11:50;;;;;;;4.30;1.30;;;4.20;96.30;;;;;;5054893;28;20203;-78